Time;durP1;ratioP1;P1;durP2;ratioP2;P2;SDS_P1;SDS_P2;PMS_P1;PMS_P2;Temp;Humidity;BMP_temperature;BMP_pressure;BME280_temperature;BME280_humidity;BME280_pressure;Samples;Min_cycle;Max_cycle;Signal;HPM_P1;HPM_P2
2022/12/06 00:01:45;;;;;;;86.18;80.28;;;;;;;;;;10126301;28;20046;-73
2022/12/06 00:06:43;;;;;;;91.22;85.25;;;;;;;;;;10125445;28;20058;-73
2022/12/06 00:11:39;;;;;;;88.45;82.38;;;;;;;;;;10130059;28;20046;-72
2022/12/06 00:16:36;;;;;;;94.85;88.25;;;;;;;;;;10127743;28;20529;-71
2022/12/06 00:21:33;;;;;;;88.72;82.68;;;;;;;;;;10131510;28;20042;-71
2022/12/06 00:26:30;;;;;;;96.80;90.20;;;;;;;;;;10134961;28;20054;-72
2022/12/06 00:31:27;;;;;;;100.20;93.13;;;;;;;;;;10127688;28;20514;-72
2022/12/06 00:36:25;;;;;;;95.20;88.50;;;;;;;;;;10126503;28;20058;-73
2022/12/06 00:41:23;;;;;;;98.22;91.32;;;;;;;;;;10128378;28;20055;-71
2022/12/06 00:46:26;;;;;;;99.95;92.95;;;;;;;;;;10130563;28;20125;-73
2022/12/06 00:51:24;;;;;;;102.72;95.68;;;;;;;;;;10130726;28;20050;-73
2022/12/06 00:56:20;;;;;;;99.32;92.47;;;;;;;;;;10123716;28;20117;-73
2022/12/06 01:01:19;;;;;;;103.72;96.82;;;;;;;;;;10137213;28;20042;-73
2022/12/06 01:06:15;;;;;;;105.63;98.43;;;;;;;;;;10130954;28;20121;-71
2022/12/06 01:11:13;;;;;;;103.20;96.40;;;;;;;;;;10137109;28;20042;-71
2022/12/06 01:16:11;;;;;;;106.88;99.30;;;;;;;;;;10125544;28;20138;-71
2022/12/06 01:21:09;;;;;;;108.22;101.25;;;;;;;;;;10133616;28;20042;-73
2022/12/06 01:26:06;;;;;;;105.40;98.25;;;;;;;;;;10129544;28;20084;-74
2022/12/06 01:31:05;;;;;;;107.40;100.53;;;;;;;;;;10131363;28;20043;-74
2022/12/06 01:36:02;;;;;;;109.13;102.15;;;;;;;;;;10124431;28;20042;-74
2022/12/06 01:40:58;;;;;;;105.60;98.75;;;;;;;;;;10132843;28;20499;-72
2022/12/06 01:45:55;;;;;;;106.45;99.75;;;;;;;;;;10125424;28;20046;-71
2022/12/06 01:50:54;;;;;;;109.65;102.65;;;;;;;;;;10134958;28;20133;-73
2022/12/06 01:55:51;;;;;;;102.80;96.35;;;;;;;;;;10133336;28;20068;-73
2022/12/06 02:00:47;;;;;;;104.38;97.53;;;;;;;;;;10130712;28;20053;-73
2022/12/06 02:05:44;;;;;;;104.35;97.63;;;;;;;;;;10116996;28;20463;-70
2022/12/06 02:10:40;;;;;;;101.28;94.40;;;;;;;;;;10127889;28;20077;-70
2022/12/06 02:15:49;;;;;;;101.93;95.35;;;;;;;;;;10118237;28;20147;-70
2022/12/06 02:20:54;;;;;;;104.80;98.07;;;;;;;;;;10114617;28;20051;-69
2022/12/06 02:26:03;;;;;;;102.70;96.28;;;;;;;;;;10115199;28;20077;-74
2022/12/06 02:31:17;;;;;;;104.93;98.40;;;;;;;;;;10129076;28;20708;-74
2022/12/06 02:36:18;;;;;;;100.78;94.53;;;;;;;;;;10122516;28;20556;-74
2022/12/06 02:41:21;;;;;;;99.53;93.47;;;;;;;;;;10131909;28;20042;-70
2022/12/06 02:46:18;;;;;;;101.97;95.57;;;;;;;;;;10126293;28;20082;-73
2022/12/06 02:51:16;;;;;;;104.38;97.97;;;;;;;;;;10121151;28;20630;-73
2022/12/06 02:56:14;;;;;;;101.95;95.82;;;;;;;;;;10113261;28;20170;-73
2022/12/06 03:01:15;;;;;;;107.32;100.88;;;;;;;;;;10121872;28;20137;-73
2022/12/06 03:06:34;;;;;;;107.38;100.85;;;;;;;;;;10115511;28;20101;-73
2022/12/06 03:11:46;;;;;;;107.43;101.07;;;;;;;;;;10097029;28;20138;-73
2022/12/06 03:17:07;;;;;;;104.53;98.07;;;;;;;;;;10114018;28;20051;-70
2022/12/06 03:22:06;;;;;;;106.28;100.03;;;;;;;;;;10122991;28;20414;-72
2022/12/06 03:27:04;;;;;;;105.03;98.80;;;;;;;;;;10115553;28;20134;-73
2022/12/06 03:32:01;;;;;;;101.28;95.20;;;;;;;;;;10121758;28;20513;-72
2022/12/06 03:36:58;;;;;;;102.38;96.38;;;;;;;;;;10110778;28;20128;-72
2022/12/06 03:41:57;;;;;;;102.75;96.57;;;;;;;;;;10124396;28;20050;-72
2022/12/06 03:46:56;;;;;;;97.68;91.78;;;;;;;;;;10115395;28;20137;-71
2022/12/06 03:51:53;;;;;;;100.57;94.63;;;;;;;;;;10116094;28;20626;-71
2022/12/06 03:56:49;;;;;;;100.53;94.63;;;;;;;;;;10116522;28;20227;-71
2022/12/06 04:01:46;;;;;;;107.25;101.00;;;;;;;;;;10115105;28;20478;-74
2022/12/06 04:06:42;;;;;;;107.40;101.00;;;;;;;;;;10109902;28;20076;-70
2022/12/06 04:11:38;;;;;;;108.22;102.03;;;;;;;;;;10115533;28;20134;-69
2022/12/06 04:48:05;;;;;;;100.32;94.32;;;;;;;;;;10096191;28;20517;-74
2022/12/06 04:53:02;;;;;;;97.70;91.82;;;;;;;;;;10135437;28;20068;-74
2022/12/06 04:57:58;;;;;;;104.00;97.80;;;;;;;;;;10105792;28;20057;-77
2022/12/06 05:02:54;;;;;;;105.00;98.65;;;;;;;;;;10093779;28;20130;-77
2022/12/06 05:07:51;;;;;;;105.95;99.60;;;;;;;;;;10097678;28;20395;-75
2022/12/06 05:12:47;;;;;;;108.25;101.82;;;;;;;;;;10087186;28;20535;-75
2022/12/06 05:17:43;;;;;;;104.35;98.15;;;;;;;;;;10088870;28;20158;-76
2022/12/06 05:22:40;;;;;;;100.70;94.50;;;;;;;;;;10105973;28;20075;-74
2022/12/06 05:27:36;;;;;;;102.43;96.22;;;;;;;;;;10101670;28;20049;-74
2022/12/06 05:32:33;;;;;;;99.93;93.93;;;;;;;;;;10121867;28;20046;-74
2022/12/06 05:37:29;;;;;;;99.38;93.47;;;;;;;;;;10120570;28;20049;-75
2022/12/06 05:42:26;;;;;;;103.55;97.18;;;;;;;;;;10112011;28;20515;-75
2022/12/06 05:47:22;;;;;;;104.05;97.75;;;;;;;;;;10104939;28;20050;-73
2022/12/06 05:52:18;;;;;;;94.70;88.72;;;;;;;;;;10090587;28;20134;-74
2022/12/06 05:57:15;;;;;;;97.72;91.72;;;;;;;;;;10090654;28;20098;-75
2022/12/06 06:02:11;;;;;;;92.18;86.47;;;;;;;;;;10092936;28;20039;-77
2022/12/06 06:07:08;;;;;;;94.82;88.80;;;;;;;;;;10110209;28;20043;-74
2022/12/06 06:12:05;;;;;;;89.45;83.85;;;;;;;;;;10108371;28;20129;-74
2022/12/06 06:17:07;;;;;;;89.85;84.15;;;;;;;;;;10101499;28;20151;-74
2022/12/06 06:22:04;;;;;;;91.10;85.25;;;;;;;;;;10108301;28;20049;-74
2022/12/06 06:27:01;;;;;;;88.45;82.78;;;;;;;;;;10118643;28;20517;-74
2022/12/06 06:31:58;;;;;;;89.93;83.93;;;;;;;;;;10108828;28;20049;-75
2022/12/06 06:36:54;;;;;;;93.65;87.72;;;;;;;;;;10102929;28;20046;-75
2022/12/06 06:41:50;;;;;;;91.65;85.78;;;;;;;;;;10107158;28;20687;-74
2022/12/06 06:46:47;;;;;;;93.70;87.68;;;;;;;;;;10100364;28;20133;-74
2022/12/06 06:51:44;;;;;;;99.40;93.30;;;;;;;;;;10105888;28;20675;-74
2022/12/06 06:56:40;;;;;;;94.13;88.22;;;;;;;;;;10098680;28;20050;-74
2022/12/06 07:01:37;;;;;;;95.65;89.45;;;;;;;;;;10093690;28;20046;-74
2022/12/06 07:06:33;;;;;;;98.40;92.20;;;;;;;;;;10086344;28;20046;-75
2022/12/06 07:11:29;;;;;;;100.82;94.43;;;;;;;;;;10097154;28;20134;-74
2022/12/06 07:16:26;;;;;;;94.35;88.32;;;;;;;;;;10089765;28;20734;-73
2022/12/06 07:21:22;;;;;;;100.20;93.82;;;;;;;;;;10092598;28;20043;-72
2022/12/06 07:26:20;;;;;;;94.20;88.10;;;;;;;;;;10098928;28;20057;-72
2022/12/06 07:31:26;;;;;;;96.72;90.43;;;;;;;;;;10095307;28;20138;-71
2022/12/06 07:36:24;;;;;;;93.70;87.70;;;;;;;;;;10094383;28;20097;-72
2022/12/06 07:46:36;;;;;;;98.35;92.05;;;;;;;;;;10093111;28;20067;-72
2022/12/06 07:51:33;;;;;;;102.10;95.60;;;;;;;;;;10107783;28;20046;-73
2022/12/06 07:56:29;;;;;;;95.25;89.07;;;;;;;;;;10103086;28;20129;-72
2022/12/06 08:01:25;;;;;;;102.15;95.65;;;;;;;;;;10096254;28;20511;-73
2022/12/06 08:06:22;;;;;;;102.70;96.13;;;;;;;;;;10088162;28;20064;-74
2022/12/06 08:11:19;;;;;;;110.85;103.72;;;;;;;;;;10084377;28;20051;-72
2022/12/06 08:16:16;;;;;;;102.70;96.15;;;;;;;;;;10088906;28;20050;-72
2022/12/06 08:21:12;;;;;;;107.28;100.53;;;;;;;;;;10089195;28;20053;-71
2022/12/06 08:26:13;;;;;;;107.95;101.18;;;;;;;;;;10095769;28;20054;-72
2022/12/06 08:31:11;;;;;;;106.85;99.90;;;;;;;;;;10112433;28;20149;-72
2022/12/06 08:36:09;;;;;;;111.82;104.82;;;;;;;;;;10108827;28;20042;-71
2022/12/06 08:41:54;;;;;;;105.53;99.13;;;;;;;;;;10107245;28;20375;-71
2022/12/06 08:46:22;;;;;;;103.47;97.03;;;;;;;;;;10109227;28;20050;-71
2022/12/06 08:51:19;;;;;;;104.78;98.50;;;;;;;;;;10103061;28;20078;-71
2022/12/06 08:56:15;;;;;;;97.10;91.13;;;;;;;;;;10096364;28;20054;-72
2022/12/06 09:01:16;;;;;;;100.32;94.10;;;;;;;;;;10091782;28;20492;-72
2022/12/06 09:06:12;;;;;;;99.95;93.82;;;;;;;;;;10100501;28;20125;-72
2022/12/06 09:11:10;;;;;;;96.03;90.10;;;;;;;;;;10097403;28;20053;-72
2022/12/06 09:16:07;;;;;;;96.13;90.22;;;;;;;;;;10087845;28;20134;-71
2022/12/06 09:21:08;;;;;;;97.05;91.15;;;;;;;;;;10096799;28;20051;-71
2022/12/06 09:26:04;;;;;;;88.53;83.13;;;;;;;;;;10105161;28;20061;-71
2022/12/06 09:31:01;;;;;;;90.93;85.32;;;;;;;;;;10110624;28;20047;-71
2022/12/06 09:36:01;;;;;;;86.80;81.40;;;;;;;;;;10105026;28;20051;-71
2022/12/06 09:41:03;;;;;;;86.65;81.25;;;;;;;;;;10114171;28;20092;-71
2022/12/06 09:46:00;;;;;;;83.97;78.88;;;;;;;;;;10106956;28;20046;-71
2022/12/06 09:51:05;;;;;;;79.93;74.57;;;;;;;;;;10109434;28;20046;-71
2022/12/06 09:56:20;;;;;;;81.18;76.18;;;;;;;;;;10122928;28;20081;-71
2022/12/06 10:01:39;;;;;;;81.28;76.07;;;;;;;;;;10113597;28;20142;-71
2022/12/06 10:06:56;;;;;;;80.78;75.80;;;;;;;;;;10101016;28;20051;-72
2022/12/06 10:12:04;;;;;;;85.78;80.60;;;;;;;;;;10118734;28;20049;-71
2022/12/06 10:17:03;;;;;;;83.05;78.15;;;;;;;;;;10102469;28;20631;-71
2022/12/06 10:22:11;;;;;;;83.65;78.43;;;;;;;;;;10108337;28;20074;-71
2022/12/06 10:27:13;;;;;;;75.60;70.78;;;;;;;;;;10104189;28;20042;-71
2022/12/06 10:32:16;;;;;;;73.63;68.93;;;;;;;;;;10112307;28;20066;-72
2022/12/06 10:37:12;;;;;;;;;;;;;;;;;;10104486;28;20159;-71
2022/12/06 10:42:12;;;;;;;73.30;68.72;;;;;;;;;;10107283;28;20028;-71
2022/12/06 10:47:20;;;;;;;72.70;68.15;;;;;;;;;;10112295;28;20130;-72
2022/12/06 10:52:37;;;;;;;68.00;63.42;;;;;;;;;;10109589;28;20162;-72
2022/12/06 10:57:42;;;;;;;73.88;69.35;;;;;;;;;;10106646;28;20046;-72
2022/12/06 11:02:44;;;;;;;67.88;63.45;;;;;;;;;;10107750;28;20066;-72
2022/12/06 11:07:42;;;;;;;64.68;60.33;;;;;;;;;;10107553;28;20050;-71
2022/12/06 11:12:39;;;;;;;57.92;53.90;;;;;;;;;;10113233;28;20047;-71
2022/12/06 11:17:42;;;;;;;63.58;59.15;;;;;;;;;;10105634;28;20673;-71
2022/12/06 11:22:44;;;;;;;64.57;60.08;;;;;;;;;;10114122;28;20101;-71
2022/12/06 11:27:52;;;;;;;68.47;63.67;;;;;;;;;;10084159;28;20071;-71
2022/12/06 11:32:50;;;;;;;73.03;68.25;;;;;;;;;;10086342;28;20043;-72
2022/12/06 11:37:46;;;;;;;74.43;69.32;;;;;;;;;;10087396;28;20134;-72
2022/12/06 11:42:42;;;;;;;75.15;70.07;;;;;;;;;;10088516;28;20051;-72
2022/12/06 11:47:39;;;;;;;68.40;63.90;;;;;;;;;;10085492;28;20047;-73
2022/12/06 11:52:42;;;;;;;69.22;64.45;;;;;;;;;;10096709;28;20630;-72
2022/12/06 11:57:41;;;;;;;63.53;59.17;;;;;;;;;;10096220;28;20061;-72
2022/12/06 12:02:38;;;;;;;65.35;60.78;;;;;;;;;;10103873;28;20094;-72
2022/12/06 12:07:36;;;;;;;66.22;61.42;;;;;;;;;;10106070;28;20052;-72
2022/12/06 12:17:56;;;;;;;69.90;65.00;;;;;;;;;;10105686;28;20162;-72
2022/12/06 12:23:15;;;;;;;71.10;66.03;;;;;;;;;;10125877;28;20051;-72
2022/12/06 12:28:25;;;;;;;70.95;66.20;;;;;;;;;;10086393;28;20051;-72
2022/12/06 12:33:22;;;;;;;72.53;67.65;;;;;;;;;;10103122;28;20054;-71
2022/12/06 12:38:37;;;;;;;70.75;65.68;;;;;;;;;;10098608;28;20410;-71
2022/12/06 12:43:33;;;;;;;75.28;70.07;;;;;;;;;;10110319;28;20113;-71
2022/12/06 12:48:29;;;;;;;76.80;71.55;;;;;;;;;;10104890;28;20129;-71
2022/12/06 12:53:30;;;;;;;74.55;69.97;;;;;;;;;;10106858;28;20129;-72
2022/12/06 12:58:26;;;;;;;72.75;68.13;;;;;;;;;;10100018;28;20043;-72
2022/12/06 13:03:29;;;;;;;72.28;67.88;;;;;;;;;;10100999;28;20467;-72
2022/12/06 13:08:46;;;;;;;70.50;66.22;;;;;;;;;;10105070;28;20615;-72
2022/12/06 13:13:43;;;;;;;66.32;61.90;;;;;;;;;;10114693;28;20421;-72
2022/12/06 13:18:42;;;;;;;63.92;60.03;;;;;;;;;;10109882;28;20550;-72
2022/12/06 13:23:39;;;;;;;66.60;62.33;;;;;;;;;;10102398;28;20058;-71
2022/12/06 13:28:39;;;;;;;67.57;63.28;;;;;;;;;;10105151;28;20046;-71
2022/12/06 13:33:40;;;;;;;59.10;55.55;;;;;;;;;;10110524;28;20057;-72
2022/12/06 13:38:37;;;;;;;62.20;58.50;;;;;;;;;;10106579;28;20114;-71
2022/12/06 13:43:33;;;;;;;68.65;64.53;;;;;;;;;;10100718;28;20050;-72
2022/12/06 13:48:37;;;;;;;70.47;66.17;;;;;;;;;;10087196;28;20065;-72
2022/12/06 13:53:53;;;;;;;71.63;67.15;;;;;;;;;;10090806;28;20135;-72
2022/12/06 13:58:51;;;;;;;67.80;63.80;;;;;;;;;;10092046;28;20055;-71
2022/12/06 14:03:54;;;;;;;64.70;60.85;;;;;;;;;;10095574;28;20050;-72
2022/12/06 14:08:52;;;;;;;63.25;59.42;;;;;;;;;;10097820;28;20125;-72
2022/12/06 14:13:59;;;;;;;54.97;51.58;;;;;;;;;;10120162;28;20138;-72
2022/12/06 14:18:55;;;;;;;55.30;51.88;;;;;;;;;;10109379;28;20043;-72
2022/12/06 14:23:52;;;;;;;50.15;46.88;;;;;;;;;;10095119;28;20610;-71
2022/12/06 14:28:49;;;;;;;50.83;47.65;;;;;;;;;;10112266;28;20133;-69
2022/12/06 14:33:45;;;;;;;46.78;43.85;;;;;;;;;;10101617;28;20055;-69
2022/12/06 14:38:48;;;;;;;49.08;45.88;;;;;;;;;;10108270;28;20593;-69
2022/12/06 14:43:46;;;;;;;47.28;44.08;;;;;;;;;;10097448;28;20051;-71
2022/12/06 14:54:15;;;;;;;41.67;39.03;;;;;;;;;;10108199;28;20090;-70
2022/12/06 14:59:11;;;;;;;44.35;41.45;;;;;;;;;;10106995;28;20057;-70
2022/12/06 15:04:21;;;;;;;40.95;38.13;;;;;;;;;;10108312;28;20038;-70
2022/12/06 15:09:20;;;;;;;41.78;39.10;;;;;;;;;;10106355;28;20055;-70
2022/12/06 15:14:17;;;;;;;40.95;38.40;;;;;;;;;;10109858;28;20053;-70
2022/12/06 15:19:15;;;;;;;34.63;32.33;;;;;;;;;;10101132;28;20042;-70
2022/12/06 15:24:15;;;;;;;32.75;30.45;;;;;;;;;;10112581;28;20041;-70
2022/12/06 15:29:13;;;;;;;35.53;33.22;;;;;;;;;;10092311;28;20150;-69
2022/12/06 15:34:19;;;;;;;33.28;31.20;;;;;;;;;;10103296;28;20130;-71
2022/12/06 15:39:15;;;;;;;28.90;27.00;;;;;;;;;;10097494;28;20486;-70
2022/12/06 15:44:13;;;;;;;27.27;25.40;;;;;;;;;;10101318;28;20063;-70
2022/12/06 15:49:19;;;;;;;25.58;23.77;;;;;;;;;;10101884;28;20043;-67
2022/12/06 15:54:20;;;;;;;27.33;25.08;;;;;;;;;;10102911;28;20454;-67
2022/12/06 15:59:17;;;;;;;27.17;25.30;;;;;;;;;;10103598;28;20057;-66
2022/12/06 16:04:18;;;;;;;30.77;28.58;;;;;;;;;;10103439;28;20134;-71
2022/12/06 16:09:15;;;;;;;31.40;28.95;;;;;;;;;;10103843;28;20047;-71
2022/12/06 16:14:12;;;;;;;31.48;29.45;;;;;;;;;;10103934;28;20051;-71
2022/12/06 16:19:11;;;;;;;33.28;30.98;;;;;;;;;;10093219;28;20811;-71
2022/12/06 16:24:11;;;;;;;36.15;33.75;;;;;;;;;;10090991;28;20113;-71
2022/12/06 16:29:14;;;;;;;38.33;35.83;;;;;;;;;;10097767;28;20063;-71
2022/12/06 16:34:11;;;;;;;36.83;34.55;;;;;;;;;;10103973;28;20050;-71
2022/12/06 16:39:08;;;;;;;37.55;35.17;;;;;;;;;;10102726;28;20113;-70
2022/12/06 16:44:05;;;;;;;39.67;36.75;;;;;;;;;;10104183;28;20054;-71
2022/12/06 16:49:04;;;;;;;35.78;33.47;;;;;;;;;;10109987;28;20490;-71
2022/12/06 16:54:20;;;;;;;33.47;31.30;;;;;;;;;;10108617;28;20050;-71
2022/12/06 16:59:17;;;;;;;35.20;32.78;;;;;;;;;;10112403;28;20057;-71
2022/12/06 17:04:13;;;;;;;32.85;30.55;;;;;;;;;;10110273;28;20081;-71
2022/12/06 17:09:10;;;;;;;32.70;30.45;;;;;;;;;;10106206;28;20121;-71
2022/12/06 17:14:07;;;;;;;32.97;30.77;;;;;;;;;;10110864;28;20047;-72
2022/12/06 17:19:04;;;;;;;31.10;28.92;;;;;;;;;;10107676;28;20049;-72
2022/12/06 17:24:01;;;;;;;30.77;28.63;;;;;;;;;;10115527;28;20127;-71
2022/12/06 17:28:58;;;;;;;28.60;26.58;;;;;;;;;;10106865;28;20070;-71
2022/12/06 17:33:57;;;;;;;27.80;25.80;;;;;;;;;;10095942;28;20047;-71
2022/12/06 17:38:53;;;;;;;27.98;26.17;;;;;;;;;;10120031;28;20137;-71
2022/12/06 17:43:49;;;;;;;27.10;25.30;;;;;;;;;;10109708;28;20054;-72
2022/12/06 17:48:46;;;;;;;29.45;27.42;;;;;;;;;;10110709;28;20049;-71
2022/12/06 17:53:42;;;;;;;29.67;27.33;;;;;;;;;;10104799;28;20138;-71
2022/12/06 17:58:38;;;;;;;28.20;25.67;;;;;;;;;;10118562;28;20062;-71
2022/12/06 18:03:35;;;;;;;27.10;25.00;;;;;;;;;;10111062;28;20812;-71
2022/12/06 18:08:31;;;;;;;26.90;24.77;;;;;;;;;;10108043;28;20047;-71
2022/12/06 18:13:28;;;;;;;26.17;24.17;;;;;;;;;;10116074;28;20138;-72
2022/12/06 18:18:24;;;;;;;25.92;23.60;;;;;;;;;;10099068;28;20043;-71
2022/12/06 18:23:21;;;;;;;27.80;25.33;;;;;;;;;;10098869;28;20253;-72
2022/12/06 18:28:17;;;;;;;26.75;24.45;;;;;;;;;;10103263;28;20073;-72
2022/12/06 18:33:14;;;;;;;24.80;22.80;;;;;;;;;;10116451;28;20399;-71
2022/12/06 18:38:16;;;;;;;24.02;22.33;;;;;;;;;;10099864;28;20476;-72
2022/12/06 18:43:13;;;;;;;25.08;23.27;;;;;;;;;;10104852;28;20050;-71
2022/12/06 18:48:09;;;;;;;25.17;23.38;;;;;;;;;;10114207;28;20043;-72
2022/12/06 18:53:06;;;;;;;26.20;24.10;;;;;;;;;;10096938;28;20129;-71
2022/12/06 18:58:03;;;;;;;28.83;26.73;;;;;;;;;;10086165;28;20557;-72
2022/12/06 19:03:00;;;;;;;29.50;27.17;;;;;;;;;;10083259;28;20070;-71
2022/12/06 19:07:56;;;;;;;28.52;26.42;;;;;;;;;;10077751;28;20150;-72
2022/12/06 19:12:53;;;;;;;28.73;26.63;;;;;;;;;;10094568;28;20105;-71
2022/12/06 19:17:49;;;;;;;30.00;27.65;;;;;;;;;;10085652;28;20047;-72
2022/12/06 19:22:46;;;;;;;31.00;28.85;;;;;;;;;;10068783;28;20051;-72
2022/12/06 19:27:42;;;;;;;31.88;29.67;;;;;;;;;;10085386;28;20055;-71
2022/12/06 19:32:39;;;;;;;33.05;30.85;;;;;;;;;;10100056;28;20162;-71
2022/12/06 19:37:35;;;;;;;35.08;32.67;;;;;;;;;;10110357;28;20050;-70
2022/12/06 19:47:48;;;;;;;37.22;34.47;;;;;;;;;;10116616;28;20045;-71
2022/12/06 19:52:44;;;;;;;38.10;35.33;;;;;;;;;;10090564;28;20054;-71
2022/12/06 19:57:44;;;;;;;38.72;36.15;;;;;;;;;;10107127;28;20070;-71
2022/12/06 20:02:41;;;;;;;39.20;36.55;;;;;;;;;;10094609;28;20372;-70
2022/12/06 20:07:37;;;;;;;38.53;35.65;;;;;;;;;;10105613;28;20138;-71
2022/12/06 20:12:34;;;;;;;36.75;34.35;;;;;;;;;;10123429;28;20050;-71
2022/12/06 20:17:30;;;;;;;35.38;32.85;;;;;;;;;;10087304;28;20063;-71
2022/12/06 20:22:27;;;;;;;35.97;33.58;;;;;;;;;;10102894;28;20050;-67
2022/12/06 20:27:49;;;;;;;35.20;32.70;;;;;;;;;;10111397;28;20074;-67
2022/12/06 20:32:39;;;;;;;33.65;31.33;;;;;;;;;;10093168;28;20137;-67
2022/12/06 20:37:36;;;;;;;35.58;33.13;;;;;;;;;;10093871;28;20046;-67
2022/12/06 20:42:33;;;;;;;35.40;32.90;;;;;;;;;;10106340;28;20062;-67
2022/12/06 20:47:29;;;;;;;32.45;30.15;;;;;;;;;;10100015;28;20078;-68
2022/12/06 20:52:25;;;;;;;31.95;29.60;;;;;;;;;;10091741;28;20047;-67
2022/12/06 20:57:22;;;;;;;33.78;31.08;;;;;;;;;;10099313;28;20042;-67
2022/12/06 21:02:18;;;;;;;32.28;29.90;;;;;;;;;;10083912;28;20062;-67
2022/12/06 21:07:15;;;;;;;33.13;30.83;;;;;;;;;;10087754;28;20086;-67
2022/12/06 21:12:11;;;;;;;33.85;31.40;;;;;;;;;;10079536;28;20086;-67
2022/12/06 21:17:11;;;;;;;30.88;28.77;;;;;;;;;;10093758;28;20414;-67
2022/12/06 21:22:07;;;;;;;33.47;30.90;;;;;;;;;;10093160;28;20035;-68
2022/12/06 21:27:03;;;;;;;31.52;29.30;;;;;;;;;;10097963;28;20058;-66
2022/12/06 21:32:00;;;;;;;31.08;29.05;;;;;;;;;;10109600;28;20457;-67
2022/12/06 21:36:56;;;;;;;34.72;32.50;;;;;;;;;;10114344;28;20046;-68
2022/12/06 21:41:53;;;;;;;36.38;33.88;;;;;;;;;;10124198;28;20514;-69
2022/12/06 21:46:50;;;;;;;36.72;34.22;;;;;;;;;;10096435;28;20482;-69
2022/12/06 21:51:47;;;;;;;37.47;34.78;;;;;;;;;;10110572;28;20039;-69
2022/12/06 21:56:44;;;;;;;37.38;34.97;;;;;;;;;;10102444;28;20158;-69
2022/12/06 22:01:40;;;;;;;39.15;36.25;;;;;;;;;;10125638;28;20420;-69
2022/12/06 22:06:36;;;;;;;37.38;34.88;;;;;;;;;;10115587;28;20519;-69
2022/12/06 22:11:33;;;;;;;38.45;35.80;;;;;;;;;;10122788;28;20052;-69
2022/12/06 22:16:30;;;;;;;43.28;39.85;;;;;;;;;;10116393;28;20089;-69
2022/12/06 22:21:27;;;;;;;42.05;38.67;;;;;;;;;;10128920;28;20078;-69
2022/12/06 22:26:26;;;;;;;43.70;40.50;;;;;;;;;;10119072;28;20046;-69
2022/12/06 22:31:24;;;;;;;50.85;46.88;;;;;;;;;;10126732;28;20510;-69
2022/12/06 22:36:21;;;;;;;54.55;50.75;;;;;;;;;;10123961;28;20047;-69
2022/12/06 22:41:18;;;;;;;55.00;51.17;;;;;;;;;;10121434;28;20049;-69
2022/12/06 22:46:18;;;;;;;64.55;60.00;;;;;;;;;;10119783;28;20069;-69
2022/12/06 22:51:19;;;;;;;65.00;60.67;;;;;;;;;;10129640;28;20762;-66
2022/12/06 22:56:15;;;;;;;68.32;63.65;;;;;;;;;;10116442;28;20385;-67
2022/12/06 23:01:13;;;;;;;76.13;71.25;;;;;;;;;;10140936;28;20046;-66
2022/12/06 23:06:13;;;;;;;77.13;72.05;;;;;;;;;;10106595;28;20050;-68
2022/12/06 23:11:10;;;;;;;78.22;73.13;;;;;;;;;;10118735;28;20066;-68
2022/12/06 23:16:09;;;;;;;84.22;78.38;;;;;;;;;;10115922;28;20042;-67
2022/12/06 23:21:17;;;;;;;82.47;76.95;;;;;;;;;;10123915;28;20046;-67
2022/12/06 23:26:15;;;;;;;88.65;82.78;;;;;;;;;;10120689;28;20649;-68
2022/12/06 23:31:13;;;;;;;91.93;85.68;;;;;;;;;;10114098;28;20129;-68
2022/12/06 23:36:12;;;;;;;92.10;86.15;;;;;;;;;;10112719;28;20425;-68
2022/12/06 23:41:16;;;;;;;93.25;86.57;;;;;;;;;;10113642;28;20125;-68
2022/12/06 23:46:16;;;;;;;94.35;88.28;;;;;;;;;;10117147;28;20047;-68
2022/12/06 23:51:19;;;;;;;89.30;83.50;;;;;;;;;;10119054;28;20478;-68
2022/12/06 23:56:16;;;;;;;96.25;89.65;;;;;;;;;;10123129;28;20692;-67
